sensor_id;sensor_type;location;lat;lon;timestamp;P1;durP1;ratioP1;P2;durP2;ratioP2
4634;SDS011;2330;48.158;11.816;2022-12-22T00:01:34;2.22;;;2.03;;
4634;SDS011;2330;48.158;11.816;2022-12-22T00:04:21;2.03;;;1.92;;
4634;SDS011;2330;48.158;11.816;2022-12-22T00:07:06;2.03;;;1.92;;
4634;SDS011;2330;48.158;11.816;2022-12-22T00:09:52;1.92;;;1.83;;
4634;SDS011;2330;48.158;11.816;2022-12-22T00:12:37;2.40;;;2.30;;
4634;SDS011;2330;48.158;11.816;2022-12-22T00:15:23;1.80;;;1.70;;
4634;SDS011;2330;48.158;11.816;2022-12-22T00:18:12;2.97;;;2.65;;
4634;SDS011;2330;48.158;11.816;2022-12-22T00:20:59;1.60;;;1.50;;
4634;SDS011;2330;48.158;11.816;2022-12-22T00:23:44;1.90;;;1.80;;
4634;SDS011;2330;48.158;11.816;2022-12-22T00:26:29;2.22;;;2.03;;
4634;SDS011;2330;48.158;11.816;2022-12-22T00:29:16;2.60;;;2.30;;
4634;SDS011;2330;48.158;11.816;2022-12-22T00:32:02;3.13;;;2.80;;
4634;SDS011;2330;48.158;11.816;2022-12-22T00:34:48;2.30;;;2.10;;
4634;SDS011;2330;48.158;11.816;2022-12-22T00:37:34;2.23;;;2.03;;
4634;SDS011;2330;48.158;11.816;2022-12-22T00:40:22;1.70;;;1.60;;
4634;SDS011;2330;48.158;11.816;2022-12-22T00:43:11;1.97;;;1.87;;
4634;SDS011;2330;48.158;11.816;2022-12-22T00:45:57;1.70;;;1.60;;
4634;SDS011;2330;48.158;11.816;2022-12-22T00:48:45;1.70;;;1.60;;
4634;SDS011;2330;48.158;11.816;2022-12-22T00:51:32;1.53;;;1.43;;
4634;SDS011;2330;48.158;11.816;2022-12-22T00:54:18;1.70;;;1.60;;
4634;SDS011;2330;48.158;11.816;2022-12-22T00:57:07;1.70;;;1.60;;
4634;SDS011;2330;48.158;11.816;2022-12-22T01:00:01;1.90;;;1.80;;
4634;SDS011;2330;48.158;11.816;2022-12-22T01:02:48;1.80;;;1.70;;
4634;SDS011;2330;48.158;11.816;2022-12-22T01:05:33;1.80;;;1.70;;
4634;SDS011;2330;48.158;11.816;2022-12-22T01:08:19;1.77;;;1.67;;
4634;SDS011;2330;48.158;11.816;2022-12-22T01:11:04;1.70;;;1.60;;
4634;SDS011;2330;48.158;11.816;2022-12-22T01:13:50;1.60;;;1.50;;
4634;SDS011;2330;48.158;11.816;2022-12-22T01:16:35;1.73;;;1.63;;
4634;SDS011;2330;48.158;11.816;2022-12-22T01:19:20;1.70;;;1.60;;
4634;SDS011;2330;48.158;11.816;2022-12-22T01:22:10;2.00;;;1.90;;
4634;SDS011;2330;48.158;11.816;2022-12-22T01:24:56;3.07;;;1.60;;
4634;SDS011;2330;48.158;11.816;2022-12-22T01:27:41;2.10;;;2.00;;
4634;SDS011;2330;48.158;11.816;2022-12-22T01:30:27;1.83;;;1.73;;
4634;SDS011;2330;48.158;11.816;2022-12-22T01:33:12;1.40;;;1.40;;
4634;SDS011;2330;48.158;11.816;2022-12-22T01:35:58;1.97;;;1.77;;
4634;SDS011;2330;48.158;11.816;2022-12-22T01:38:43;1.53;;;1.43;;
4634;SDS011;2330;48.158;11.816;2022-12-22T01:41:29;1.65;;;1.55;;
4634;SDS011;2330;48.158;11.816;2022-12-22T01:44:15;1.73;;;1.42;;
4634;SDS011;2330;48.158;11.816;2022-12-22T01:50:15;1.95;;;1.45;;
4634;SDS011;2330;48.158;11.816;2022-12-22T01:53:05;1.50;;;1.40;;
4634;SDS011;2330;48.158;11.816;2022-12-22T01:55:54;1.33;;;1.30;;
4634;SDS011;2330;48.158;11.816;2022-12-22T01:58:42;1.20;;;1.20;;
4634;SDS011;2330;48.158;11.816;2022-12-22T02:01:31;1.30;;;1.30;;
4634;SDS011;2330;48.158;11.816;2022-12-22T02:04:17;1.10;;;1.10;;
4634;SDS011;2330;48.158;11.816;2022-12-22T02:07:07;1.20;;;1.10;;
4634;SDS011;2330;48.158;11.816;2022-12-22T02:16:51;0.90;;;0.90;;
4634;SDS011;2330;48.158;11.816;2022-12-22T02:19:53;1.23;;;1.13;;
4634;SDS011;2330;48.158;11.816;2022-12-22T02:29:12;2.15;;;0.98;;
4634;SDS011;2330;48.158;11.816;2022-12-22T02:32:00;1.30;;;1.20;;
4634;SDS011;2330;48.158;11.816;2022-12-22T02:34:45;0.97;;;0.97;;
4634;SDS011;2330;48.158;11.816;2022-12-22T02:40:49;1.30;;;1.20;;
4634;SDS011;2330;48.158;11.816;2022-12-22T02:43:54;1.03;;;1.00;;
4634;SDS011;2330;48.158;11.816;2022-12-22T02:46:47;0.95;;;0.95;;
4634;SDS011;2330;48.158;11.816;2022-12-22T02:49:45;1.03;;;0.93;;
4634;SDS011;2330;48.158;11.816;2022-12-22T02:52:37;1.10;;;1.10;;
4634;SDS011;2330;48.158;11.816;2022-12-22T02:55:24;1.10;;;1.03;;
4634;SDS011;2330;48.158;11.816;2022-12-22T02:58:12;1.00;;;0.90;;
4634;SDS011;2330;48.158;11.816;2022-12-22T03:00:57;0.70;;;0.70;;
4634;SDS011;2330;48.158;11.816;2022-12-22T03:03:44;2.67;;;1.10;;
4634;SDS011;2330;48.158;11.816;2022-12-22T03:06:30;1.07;;;1.00;;
4634;SDS011;2330;48.158;11.816;2022-12-22T03:09:15;0.70;;;0.70;;
4634;SDS011;2330;48.158;11.816;2022-12-22T03:12:00;0.80;;;0.80;;
4634;SDS011;2330;48.158;11.816;2022-12-22T03:14:46;1.13;;;0.70;;
4634;SDS011;2330;48.158;11.816;2022-12-22T03:17:31;0.80;;;0.80;;
4634;SDS011;2330;48.158;11.816;2022-12-22T03:20:16;0.80;;;0.80;;
4634;SDS011;2330;48.158;11.816;2022-12-22T03:23:03;1.00;;;1.00;;
4634;SDS011;2330;48.158;11.816;2022-12-22T03:25:49;1.23;;;0.90;;
4634;SDS011;2330;48.158;11.816;2022-12-22T03:28:23;1.43;;;1.17;;
4634;SDS011;2330;48.158;11.816;2022-12-22T03:31:02;0.80;;;0.80;;
4634;SDS011;2330;48.158;11.816;2022-12-22T03:33:31;1.10;;;1.00;;
4634;SDS011;2330;48.158;11.816;2022-12-22T03:35:58;1.20;;;0.83;;
4634;SDS011;2330;48.158;11.816;2022-12-22T03:38:26;0.80;;;0.80;;
4634;SDS011;2330;48.158;11.816;2022-12-22T03:40:52;2.13;;;0.80;;
4634;SDS011;2330;48.158;11.816;2022-12-22T03:43:20;1.13;;;1.03;;
4634;SDS011;2330;48.158;11.816;2022-12-22T03:46:05;1.83;;;0.80;;
4634;SDS011;2330;48.158;11.816;2022-12-22T03:48:55;1.57;;;0.90;;
4634;SDS011;2330;48.158;11.816;2022-12-22T03:51:48;2.77;;;1.33;;
4634;SDS011;2330;48.158;11.816;2022-12-22T03:54:17;1.80;;;1.33;;
4634;SDS011;2330;48.158;11.816;2022-12-22T03:56:45;2.23;;;1.10;;
4634;SDS011;2330;48.158;11.816;2022-12-22T03:59:12;1.30;;;1.20;;
4634;SDS011;2330;48.158;11.816;2022-12-22T04:01:50;1.60;;;1.17;;
4634;SDS011;2330;48.158;11.816;2022-12-22T04:04:19;2.83;;;1.07;;
4634;SDS011;2330;48.158;11.816;2022-12-22T04:06:48;2.80;;;1.00;;
4634;SDS011;2330;48.158;11.816;2022-12-22T04:09:15;3.00;;;1.23;;
4634;SDS011;2330;48.158;11.816;2022-12-22T04:11:42;1.53;;;0.90;;
4634;SDS011;2330;48.158;11.816;2022-12-22T04:14:27;0.80;;;0.80;;
4634;SDS011;2330;48.158;11.816;2022-12-22T04:17:00;2.67;;;1.30;;
4634;SDS011;2330;48.158;11.816;2022-12-22T04:19:27;5.00;;;1.67;;
4634;SDS011;2330;48.158;11.816;2022-12-22T04:21:54;2.00;;;1.70;;
4634;SDS011;2330;48.158;11.816;2022-12-22T04:24:21;1.10;;;1.00;;
4634;SDS011;2330;48.158;11.816;2022-12-22T04:26:49;1.30;;;1.30;;
4634;SDS011;2330;48.158;11.816;2022-12-22T04:29:16;4.93;;;1.47;;
4634;SDS011;2330;48.158;11.816;2022-12-22T04:31:42;4.30;;;1.30;;
4634;SDS011;2330;48.158;11.816;2022-12-22T04:34:09;2.00;;;1.30;;
4634;SDS011;2330;48.158;11.816;2022-12-22T04:36:36;2.03;;;1.60;;
4634;SDS011;2330;48.158;11.816;2022-12-22T04:39:03;1.33;;;1.23;;
4634;SDS011;2330;48.158;11.816;2022-12-22T04:41:30;1.47;;;1.37;;
4634;SDS011;2330;48.158;11.816;2022-12-22T04:43:57;1.30;;;1.13;;
4634;SDS011;2330;48.158;11.816;2022-12-22T04:46:24;1.40;;;1.30;;
4634;SDS011;2330;48.158;11.816;2022-12-22T04:48:51;2.40;;;1.17;;
4634;SDS011;2330;48.158;11.816;2022-12-22T04:51:25;1.40;;;1.03;;
4634;SDS011;2330;48.158;11.816;2022-12-22T04:53:52;1.20;;;1.10;;
4634;SDS011;2330;48.158;11.816;2022-12-22T04:56:18;3.43;;;1.10;;
4634;SDS011;2330;48.158;11.816;2022-12-22T04:58:45;1.10;;;1.00;;
4634;SDS011;2330;48.158;11.816;2022-12-22T05:01:13;1.30;;;1.20;;
4634;SDS011;2330;48.158;11.816;2022-12-22T05:03:41;1.45;;;1.35;;
4634;SDS011;2330;48.158;11.816;2022-12-22T05:06:08;2.20;;;1.50;;
4634;SDS011;2330;48.158;11.816;2022-12-22T05:08:36;1.80;;;1.20;;
4634;SDS011;2330;48.158;11.816;2022-12-22T05:11:03;4.50;;;1.20;;
4634;SDS011;2330;48.158;11.816;2022-12-22T05:13:31;1.73;;;1.20;;
4634;SDS011;2330;48.158;11.816;2022-12-22T05:16:01;1.07;;;0.97;;
4634;SDS011;2330;48.158;11.816;2022-12-22T05:18:33;2.30;;;1.10;;
4634;SDS011;2330;48.158;11.816;2022-12-22T05:21:01;1.10;;;1.00;;
4634;SDS011;2330;48.158;11.816;2022-12-22T05:23:31;2.87;;;1.27;;
4634;SDS011;2330;48.158;11.816;2022-12-22T05:25:58;1.57;;;1.10;;
4634;SDS011;2330;48.158;11.816;2022-12-22T05:28:24;1.43;;;1.33;;
4634;SDS011;2330;48.158;11.816;2022-12-22T05:30:51;4.40;;;2.10;;
4634;SDS011;2330;48.158;11.816;2022-12-22T05:33:19;3.80;;;1.90;;
4634;SDS011;2330;48.158;11.816;2022-12-22T05:35:46;5.50;;;3.70;;
4634;SDS011;2330;48.158;11.816;2022-12-22T05:38:12;4.20;;;3.20;;
4634;SDS011;2330;48.158;11.816;2022-12-22T05:40:39;2.40;;;2.17;;
4634;SDS011;2330;48.158;11.816;2022-12-22T05:43:06;5.70;;;4.40;;
4634;SDS011;2330;48.158;11.816;2022-12-22T05:45:33;4.60;;;3.93;;
4634;SDS011;2330;48.158;11.816;2022-12-22T05:47:59;3.00;;;1.43;;
4634;SDS011;2330;48.158;11.816;2022-12-22T05:50:26;2.50;;;1.07;;
4634;SDS011;2330;48.158;11.816;2022-12-22T05:52:53;1.13;;;0.97;;
4634;SDS011;2330;48.158;11.816;2022-12-22T05:55:20;1.03;;;0.77;;
4634;SDS011;2330;48.158;11.816;2022-12-22T05:57:47;2.37;;;1.20;;
4634;SDS011;2330;48.158;11.816;2022-12-22T06:00:15;1.20;;;1.10;;
4634;SDS011;2330;48.158;11.816;2022-12-22T06:02:43;0.77;;;0.77;;
4634;SDS011;2330;48.158;11.816;2022-12-22T06:05:10;0.80;;;0.80;;
4634;SDS011;2330;48.158;11.816;2022-12-22T06:07:38;1.17;;;0.93;;
4634;SDS011;2330;48.158;11.816;2022-12-22T06:10:05;0.87;;;0.80;;
4634;SDS011;2330;48.158;11.816;2022-12-22T06:12:38;1.47;;;1.10;;
4634;SDS011;2330;48.158;11.816;2022-12-22T06:15:06;1.00;;;0.90;;
4634;SDS011;2330;48.158;11.816;2022-12-22T06:17:34;1.30;;;1.20;;
4634;SDS011;2330;48.158;11.816;2022-12-22T06:20:09;1.73;;;1.20;;
4634;SDS011;2330;48.158;11.816;2022-12-22T06:22:37;1.20;;;0.87;;
4634;SDS011;2330;48.158;11.816;2022-12-22T06:25:04;2.67;;;0.90;;
4634;SDS011;2330;48.158;11.816;2022-12-22T06:27:31;1.00;;;0.80;;
4634;SDS011;2330;48.158;11.816;2022-12-22T06:29:58;0.80;;;0.80;;
4634;SDS011;2330;48.158;11.816;2022-12-22T06:32:25;0.80;;;0.80;;
4634;SDS011;2330;48.158;11.816;2022-12-22T06:34:51;0.97;;;0.80;;
4634;SDS011;2330;48.158;11.816;2022-12-22T06:37:18;0.90;;;0.80;;
4634;SDS011;2330;48.158;11.816;2022-12-22T06:39:45;0.80;;;0.80;;
4634;SDS011;2330;48.158;11.816;2022-12-22T06:42:12;3.10;;;0.93;;
4634;SDS011;2330;48.158;11.816;2022-12-22T06:44:57;0.70;;;0.70;;
4634;SDS011;2330;48.158;11.816;2022-12-22T06:47:24;2.30;;;1.23;;
4634;SDS011;2330;48.158;11.816;2022-12-22T06:49:51;0.70;;;0.70;;
4634;SDS011;2330;48.158;11.816;2022-12-22T06:52:17;0.80;;;0.80;;
4634;SDS011;2330;48.158;11.816;2022-12-22T06:54:44;0.70;;;0.70;;
4634;SDS011;2330;48.158;11.816;2022-12-22T06:57:11;0.70;;;0.70;;
4634;SDS011;2330;48.158;11.816;2022-12-22T06:59:38;0.73;;;0.70;;
4634;SDS011;2330;48.158;11.816;2022-12-22T07:02:04;1.07;;;1.00;;
4634;SDS011;2330;48.158;11.816;2022-12-22T07:04:32;1.53;;;1.00;;
4634;SDS011;2330;48.158;11.816;2022-12-22T07:06:58;1.30;;;0.90;;
4634;SDS011;2330;48.158;11.816;2022-12-22T07:09:25;1.07;;;0.97;;
4634;SDS011;2330;48.158;11.816;2022-12-22T07:11:52;0.70;;;0.70;;
4634;SDS011;2330;48.158;11.816;2022-12-22T07:14:20;0.97;;;0.87;;
4634;SDS011;2330;48.158;11.816;2022-12-22T07:16:47;1.47;;;0.90;;
4634;SDS011;2330;48.158;11.816;2022-12-22T07:19:14;1.80;;;0.88;;
4634;SDS011;2330;48.158;11.816;2022-12-22T07:21:41;1.37;;;1.27;;
4634;SDS011;2330;48.158;11.816;2022-12-22T07:24:07;2.07;;;0.87;;
4634;SDS011;2330;48.158;11.816;2022-12-22T07:26:34;6.60;;;1.10;;
4634;SDS011;2330;48.158;11.816;2022-12-22T07:29:01;1.23;;;0.70;;
4634;SDS011;2330;48.158;11.816;2022-12-22T07:31:28;1.13;;;1.00;;
4634;SDS011;2330;48.158;11.816;2022-12-22T07:33:55;1.30;;;0.97;;
4634;SDS011;2330;48.158;11.816;2022-12-22T07:36:21;2.10;;;1.40;;
4634;SDS011;2330;48.158;11.816;2022-12-22T07:38:49;0.80;;;0.80;;
4634;SDS011;2330;48.158;11.816;2022-12-22T07:41:17;1.00;;;0.83;;
4634;SDS011;2330;48.158;11.816;2022-12-22T07:44:04;1.73;;;1.00;;
4634;SDS011;2330;48.158;11.816;2022-12-22T07:46:31;2.23;;;0.80;;
4634;SDS011;2330;48.158;11.816;2022-12-22T07:49:00;1.23;;;0.70;;
4634;SDS011;2330;48.158;11.816;2022-12-22T07:51:47;1.57;;;0.73;;
4634;SDS011;2330;48.158;11.816;2022-12-22T07:54:14;5.10;;;1.00;;
4634;SDS011;2330;48.158;11.816;2022-12-22T07:56:42;2.97;;;1.20;;
4634;SDS011;2330;48.158;11.816;2022-12-22T07:59:10;3.87;;;2.87;;
4634;SDS011;2330;48.158;11.816;2022-12-22T08:01:37;4.10;;;3.60;;
4634;SDS011;2330;48.158;11.816;2022-12-22T08:04:07;8.80;;;5.93;;
4634;SDS011;2330;48.158;11.816;2022-12-22T08:06:34;7.67;;;5.57;;
4634;SDS011;2330;48.158;11.816;2022-12-22T08:09:02;4.47;;;4.07;;
4634;SDS011;2330;48.158;11.816;2022-12-22T08:11:30;2.67;;;2.07;;
4634;SDS011;2330;48.158;11.816;2022-12-22T08:13:57;3.03;;;2.07;;
4634;SDS011;2330;48.158;11.816;2022-12-22T08:16:27;1.90;;;1.63;;
4634;SDS011;2330;48.158;11.816;2022-12-22T08:18:55;1.77;;;1.23;;
4634;SDS011;2330;48.158;11.816;2022-12-22T08:21:22;1.50;;;1.10;;
4634;SDS011;2330;48.158;11.816;2022-12-22T08:23:49;2.00;;;1.03;;
4634;SDS011;2330;48.158;11.816;2022-12-22T08:26:17;2.40;;;1.20;;
4634;SDS011;2330;48.158;11.816;2022-12-22T08:28:47;2.70;;;0.90;;
4634;SDS011;2330;48.158;11.816;2022-12-22T08:31:18;2.47;;;1.10;;
4634;SDS011;2330;48.158;11.816;2022-12-22T08:33:46;1.67;;;1.00;;
4634;SDS011;2330;48.158;11.816;2022-12-22T08:36:13;1.97;;;1.00;;
4634;SDS011;2330;48.158;11.816;2022-12-22T08:38:42;2.67;;;1.37;;
4634;SDS011;2330;48.158;11.816;2022-12-22T08:41:09;1.63;;;1.30;;
4634;SDS011;2330;48.158;11.816;2022-12-22T08:43:38;1.60;;;1.00;;
4634;SDS011;2330;48.158;11.816;2022-12-22T08:46:06;5.00;;;3.80;;
4634;SDS011;2330;48.158;11.816;2022-12-22T08:48:32;1.70;;;1.60;;
4634;SDS011;2330;48.158;11.816;2022-12-22T08:50:59;3.00;;;1.40;;
4634;SDS011;2330;48.158;11.816;2022-12-22T08:53:26;5.33;;;1.03;;
4634;SDS011;2330;48.158;11.816;2022-12-22T08:56:12;2.40;;;0.93;;
4634;SDS011;2330;48.158;11.816;2022-12-22T08:58:39;2.20;;;0.90;;
4634;SDS011;2330;48.158;11.816;2022-12-22T09:01:06;3.00;;;1.40;;
4634;SDS011;2330;48.158;11.816;2022-12-22T09:03:33;2.10;;;1.27;;
4634;SDS011;2330;48.158;11.816;2022-12-22T09:06:00;0.90;;;0.80;;
4634;SDS011;2330;48.158;11.816;2022-12-22T09:08:28;3.87;;;1.20;;
4634;SDS011;2330;48.158;11.816;2022-12-22T09:10:54;3.40;;;1.50;;
4634;SDS011;2330;48.158;11.816;2022-12-22T09:13:21;6.37;;;3.53;;
4634;SDS011;2330;48.158;11.816;2022-12-22T09:15:48;7.17;;;6.47;;
4634;SDS011;2330;48.158;11.816;2022-12-22T09:18:15;12.80;;;11.50;;
4634;SDS011;2330;48.158;11.816;2022-12-22T09:20:41;7.10;;;5.90;;
4634;SDS011;2330;48.158;11.816;2022-12-22T09:23:08;1.70;;;1.60;;
4634;SDS011;2330;48.158;11.816;2022-12-22T09:25:35;4.70;;;2.03;;
4634;SDS011;2330;48.158;11.816;2022-12-22T09:28:03;2.83;;;1.20;;
4634;SDS011;2330;48.158;11.816;2022-12-22T09:30:32;3.77;;;1.30;;
4634;SDS011;2330;48.158;11.816;2022-12-22T09:32:59;1.93;;;0.93;;
4634;SDS011;2330;48.158;11.816;2022-12-22T09:35:26;3.57;;;1.10;;
4634;SDS011;2330;48.158;11.816;2022-12-22T09:37:53;2.30;;;1.17;;
4634;SDS011;2330;48.158;11.816;2022-12-22T09:40:19;1.73;;;1.17;;
4634;SDS011;2330;48.158;11.816;2022-12-22T09:42:47;2.60;;;1.30;;
4634;SDS011;2330;48.158;11.816;2022-12-22T09:45:14;2.00;;;1.00;;
4634;SDS011;2330;48.158;11.816;2022-12-22T09:47:48;2.40;;;1.30;;
4634;SDS011;2330;48.158;11.816;2022-12-22T09:50:23;3.83;;;1.10;;
4634;SDS011;2330;48.158;11.816;2022-12-22T09:52:56;1.07;;;0.90;;
4634;SDS011;2330;48.158;11.816;2022-12-22T09:58:15;2.30;;;0.83;;
4634;SDS011;2330;48.158;11.816;2022-12-22T10:09:25;3.57;;;1.13;;
4634;SDS011;2330;48.158;11.816;2022-12-22T10:12:15;2.17;;;0.90;;
4634;SDS011;2330;48.158;11.816;2022-12-22T10:14:49;5.30;;;1.90;;
4634;SDS011;2330;48.158;11.816;2022-12-22T10:17:19;4.40;;;2.20;;
4634;SDS011;2330;48.158;11.816;2022-12-22T10:19:52;2.83;;;1.73;;
4634;SDS011;2330;48.158;11.816;2022-12-22T10:22:30;11.23;;;5.90;;
4634;SDS011;2330;48.158;11.816;2022-12-22T10:25:00;1.70;;;1.00;;
4634;SDS011;2330;48.158;11.816;2022-12-22T10:27:30;1.97;;;1.60;;
4634;SDS011;2330;48.158;11.816;2022-12-22T10:30:16;2.23;;;1.23;;
4634;SDS011;2330;48.158;11.816;2022-12-22T10:35:53;1.40;;;1.10;;
4634;SDS011;2330;48.158;11.816;2022-12-22T10:40:56;3.40;;;1.50;;
4634;SDS011;2330;48.158;11.816;2022-12-22T10:43:38;1.90;;;1.10;;
4634;SDS011;2330;48.158;11.816;2022-12-22T10:46:12;2.10;;;1.10;;
4634;SDS011;2330;48.158;11.816;2022-12-22T10:48:39;1.13;;;1.03;;
4634;SDS011;2330;48.158;11.816;2022-12-22T10:51:07;1.83;;;1.20;;
4634;SDS011;2330;48.158;11.816;2022-12-22T10:54:00;3.10;;;1.23;;
4634;SDS011;2330;48.158;11.816;2022-12-22T10:56:27;2.27;;;1.10;;
4634;SDS011;2330;48.158;11.816;2022-12-22T10:59:03;1.97;;;0.90;;
4634;SDS011;2330;48.158;11.816;2022-12-22T11:01:44;2.30;;;1.20;;
4634;SDS011;2330;48.158;11.816;2022-12-22T11:06:50;2.53;;;1.00;;
4634;SDS011;2330;48.158;11.816;2022-12-22T11:09:19;3.20;;;1.37;;
4634;SDS011;2330;48.158;11.816;2022-12-22T11:12:09;2.60;;;1.00;;
4634;SDS011;2330;48.158;11.816;2022-12-22T11:20:34;2.43;;;1.17;;
4634;SDS011;2330;48.158;11.816;2022-12-22T11:28:50;2.30;;;1.03;;
4634;SDS011;2330;48.158;11.816;2022-12-22T11:31:45;2.10;;;1.20;;
4634;SDS011;2330;48.158;11.816;2022-12-22T11:34:50;6.53;;;1.63;;
4634;SDS011;2330;48.158;11.816;2022-12-22T11:40:29;4.67;;;1.93;;
4634;SDS011;2330;48.158;11.816;2022-12-22T11:46:07;2.20;;;1.60;;
4634;SDS011;2330;48.158;11.816;2022-12-22T11:49:09;5.67;;;2.37;;
4634;SDS011;2330;48.158;11.816;2022-12-22T11:54:39;3.60;;;1.70;;
4634;SDS011;2330;48.158;11.816;2022-12-22T12:00:13;4.23;;;1.60;;
4634;SDS011;2330;48.158;11.816;2022-12-22T12:08:49;4.87;;;1.70;;
4634;SDS011;2330;48.158;11.816;2022-12-22T12:16:46;7.13;;;2.03;;
4634;SDS011;2330;48.158;11.816;2022-12-22T12:28:15;6.40;;;1.80;;
4634;SDS011;2330;48.158;11.816;2022-12-22T12:30:54;6.60;;;2.03;;
4634;SDS011;2330;48.158;11.816;2022-12-22T12:44:23;3.77;;;1.67;;
4634;SDS011;2330;48.158;11.816;2022-12-22T12:46:54;4.60;;;1.60;;
4634;SDS011;2330;48.158;11.816;2022-12-22T12:55:25;4.07;;;2.10;;
4634;SDS011;2330;48.158;11.816;2022-12-22T12:57:58;7.63;;;2.10;;
4634;SDS011;2330;48.158;11.816;2022-12-22T13:02:57;6.60;;;2.20;;
4634;SDS011;2330;48.158;11.816;2022-12-22T13:05:27;3.83;;;1.57;;
4634;SDS011;2330;48.158;11.816;2022-12-22T13:08:22;5.47;;;2.13;;
4634;SDS011;2330;48.158;11.816;2022-12-22T13:26:48;6.90;;;3.30;;
4634;SDS011;2330;48.158;11.816;2022-12-22T13:29:18;5.53;;;1.90;;
4634;SDS011;2330;48.158;11.816;2022-12-22T13:31:59;10.35;;;4.30;;
4634;SDS011;2330;48.158;11.816;2022-12-22T13:37:40;4.40;;;2.40;;
4634;SDS011;2330;48.158;11.816;2022-12-22T13:42:44;6.33;;;2.23;;
4634;SDS011;2330;48.158;11.816;2022-12-22T13:48:45;5.40;;;3.03;;
4634;SDS011;2330;48.158;11.816;2022-12-22T13:51:13;5.27;;;2.67;;
4634;SDS011;2330;48.158;11.816;2022-12-22T13:53:55;5.93;;;2.00;;
4634;SDS011;2330;48.158;11.816;2022-12-22T13:56:43;6.83;;;1.87;;
4634;SDS011;2330;48.158;11.816;2022-12-22T13:59:35;3.00;;;1.97;;
4634;SDS011;2330;48.158;11.816;2022-12-22T14:02:00;6.03;;;1.93;;
4634;SDS011;2330;48.158;11.816;2022-12-22T14:05:08;5.93;;;2.13;;
4634;SDS011;2330;48.158;11.816;2022-12-22T14:07:39;6.67;;;2.47;;
4634;SDS011;2330;48.158;11.816;2022-12-22T14:11:04;4.70;;;1.90;;
4634;SDS011;2330;48.158;11.816;2022-12-22T14:13:15;7.03;;;2.53;;
4634;SDS011;2330;48.158;11.816;2022-12-22T14:15:45;7.33;;;2.53;;
4634;SDS011;2330;48.158;11.816;2022-12-22T14:18:19;6.03;;;2.50;;
4634;SDS011;2330;48.158;11.816;2022-12-22T14:20:50;4.70;;;2.13;;
4634;SDS011;2330;48.158;11.816;2022-12-22T14:23:21;6.97;;;2.77;;
4634;SDS011;2330;48.158;11.816;2022-12-22T14:25:52;9.10;;;3.30;;
4634;SDS011;2330;48.158;11.816;2022-12-22T14:30:58;6.13;;;2.23;;
4634;SDS011;2330;48.158;11.816;2022-12-22T14:33:27;7.50;;;2.47;;
4634;SDS011;2330;48.158;11.816;2022-12-22T14:36:13;4.33;;;1.70;;
4634;SDS011;2330;48.158;11.816;2022-12-22T14:38:42;6.87;;;2.87;;
4634;SDS011;2330;48.158;11.816;2022-12-22T14:41:18;9.60;;;2.53;;
4634;SDS011;2330;48.158;11.816;2022-12-22T14:44:05;10.30;;;3.23;;
4634;SDS011;2330;48.158;11.816;2022-12-22T14:47:00;7.70;;;3.43;;
4634;SDS011;2330;48.158;11.816;2022-12-22T14:52:47;9.40;;;3.50;;
4634;SDS011;2330;48.158;11.816;2022-12-22T14:58:02;4.50;;;2.80;;
4634;SDS011;2330;48.158;11.816;2022-12-22T15:00:36;6.73;;;3.10;;
4634;SDS011;2330;48.158;11.816;2022-12-22T15:03:24;9.20;;;3.00;;
4634;SDS011;2330;48.158;11.816;2022-12-22T15:11:37;7.10;;;2.37;;
4634;SDS011;2330;48.158;11.816;2022-12-22T15:14:08;9.23;;;2.57;;
4634;SDS011;2330;48.158;11.816;2022-12-22T15:16:39;5.93;;;2.63;;
4634;SDS011;2330;48.158;11.816;2022-12-22T15:19:06;8.90;;;3.30;;
4634;SDS011;2330;48.158;11.816;2022-12-22T15:21:33;10.83;;;3.00;;
4634;SDS011;2330;48.158;11.816;2022-12-22T15:24:00;7.33;;;2.40;;
4634;SDS011;2330;48.158;11.816;2022-12-22T15:26:28;9.47;;;2.80;;
4634;SDS011;2330;48.158;11.816;2022-12-22T15:29:02;6.33;;;2.60;;
4634;SDS011;2330;48.158;11.816;2022-12-22T15:31:29;10.07;;;2.60;;
4634;SDS011;2330;48.158;11.816;2022-12-22T15:33:57;7.03;;;2.70;;
4634;SDS011;2330;48.158;11.816;2022-12-22T15:36:25;7.77;;;2.30;;
4634;SDS011;2330;48.158;11.816;2022-12-22T15:38:52;8.20;;;2.67;;
4634;SDS011;2330;48.158;11.816;2022-12-22T15:41:19;8.67;;;2.73;;
4634;SDS011;2330;48.158;11.816;2022-12-22T15:43:46;8.37;;;2.73;;
4634;SDS011;2330;48.158;11.816;2022-12-22T15:46:28;7.37;;;2.70;;
4634;SDS011;2330;48.158;11.816;2022-12-22T15:48:55;6.47;;;1.90;;
4634;SDS011;2330;48.158;11.816;2022-12-22T15:51:23;10.33;;;2.73;;
4634;SDS011;2330;48.158;11.816;2022-12-22T15:53:52;8.20;;;2.60;;
4634;SDS011;2330;48.158;11.816;2022-12-22T15:56:21;6.13;;;2.30;;
4634;SDS011;2330;48.158;11.816;2022-12-22T15:58:50;5.73;;;2.37;;
4634;SDS011;2330;48.158;11.816;2022-12-22T16:01:17;7.47;;;2.70;;
4634;SDS011;2330;48.158;11.816;2022-12-22T16:03:44;8.63;;;3.87;;
4634;SDS011;2330;48.158;11.816;2022-12-22T16:06:11;4.83;;;2.93;;
4634;SDS011;2330;48.158;11.816;2022-12-22T16:08:41;9.10;;;2.73;;
4634;SDS011;2330;48.158;11.816;2022-12-22T16:11:11;7.63;;;2.60;;
4634;SDS011;2330;48.158;11.816;2022-12-22T16:13:38;16.07;;;9.90;;
4634;SDS011;2330;48.158;11.816;2022-12-22T16:16:04;9.07;;;4.00;;
4634;SDS011;2330;48.158;11.816;2022-12-22T16:18:33;14.00;;;3.10;;
4634;SDS011;2330;48.158;11.816;2022-12-22T16:21:04;8.13;;;3.27;;
4634;SDS011;2330;48.158;11.816;2022-12-22T16:23:33;9.33;;;2.80;;
4634;SDS011;2330;48.158;11.816;2022-12-22T16:26:02;6.77;;;2.33;;
4634;SDS011;2330;48.158;11.816;2022-12-22T16:28:30;7.80;;;2.13;;
4634;SDS011;2330;48.158;11.816;2022-12-22T16:30:58;4.77;;;2.80;;
4634;SDS011;2330;48.158;11.816;2022-12-22T16:33:26;10.10;;;2.43;;
4634;SDS011;2330;48.158;11.816;2022-12-22T16:35:53;5.90;;;2.53;;
4634;SDS011;2330;48.158;11.816;2022-12-22T16:38:20;3.60;;;1.90;;
4634;SDS011;2330;48.158;11.816;2022-12-22T16:40:48;4.30;;;1.97;;
4634;SDS011;2330;48.158;11.816;2022-12-22T16:43:19;7.23;;;2.03;;
4634;SDS011;2330;48.158;11.816;2022-12-22T16:46:19;8.17;;;2.87;;
4634;SDS011;2330;48.158;11.816;2022-12-22T16:48:55;8.30;;;2.30;;
4634;SDS011;2330;48.158;11.816;2022-12-22T16:51:26;5.40;;;2.93;;
4634;SDS011;2330;48.158;11.816;2022-12-22T16:53:59;3.43;;;1.60;;
4634;SDS011;2330;48.158;11.816;2022-12-22T16:56:26;4.03;;;1.60;;
4634;SDS011;2330;48.158;11.816;2022-12-22T16:58:55;10.50;;;2.83;;
4634;SDS011;2330;48.158;11.816;2022-12-22T17:01:29;5.67;;;2.00;;
4634;SDS011;2330;48.158;11.816;2022-12-22T17:03:59;4.07;;;1.90;;
4634;SDS011;2330;48.158;11.816;2022-12-22T17:06:29;6.83;;;3.37;;
4634;SDS011;2330;48.158;11.816;2022-12-22T17:08:56;4.10;;;1.80;;
4634;SDS011;2330;48.158;11.816;2022-12-22T17:11:23;6.63;;;2.63;;
4634;SDS011;2330;48.158;11.816;2022-12-22T17:13:52;7.13;;;2.47;;
4634;SDS011;2330;48.158;11.816;2022-12-22T17:16:27;6.37;;;2.67;;
4634;SDS011;2330;48.158;11.816;2022-12-22T17:18:54;6.17;;;2.60;;
4634;SDS011;2330;48.158;11.816;2022-12-22T17:21:21;4.97;;;2.00;;
4634;SDS011;2330;48.158;11.816;2022-12-22T17:23:51;5.67;;;2.63;;
4634;SDS011;2330;48.158;11.816;2022-12-22T17:26:20;7.23;;;2.67;;
4634;SDS011;2330;48.158;11.816;2022-12-22T17:28:49;7.80;;;2.83;;
4634;SDS011;2330;48.158;11.816;2022-12-22T17:31:18;4.70;;;2.00;;
4634;SDS011;2330;48.158;11.816;2022-12-22T17:33:47;4.17;;;2.40;;
4634;SDS011;2330;48.158;11.816;2022-12-22T17:36:15;5.30;;;2.03;;
4634;SDS011;2330;48.158;11.816;2022-12-22T17:38:57;6.57;;;2.10;;
4634;SDS011;2330;48.158;11.816;2022-12-22T17:41:24;8.47;;;2.13;;
4634;SDS011;2330;48.158;11.816;2022-12-22T17:43:51;5.20;;;2.30;;
4634;SDS011;2330;48.158;11.816;2022-12-22T17:46:18;7.47;;;2.60;;
4634;SDS011;2330;48.158;11.816;2022-12-22T17:48:46;5.17;;;2.40;;
4634;SDS011;2330;48.158;11.816;2022-12-22T17:51:18;7.40;;;2.53;;
4634;SDS011;2330;48.158;11.816;2022-12-22T17:53:47;6.10;;;2.23;;
4634;SDS011;2330;48.158;11.816;2022-12-22T17:56:15;6.20;;;2.33;;
4634;SDS011;2330;48.158;11.816;2022-12-22T17:58:47;3.20;;;2.30;;
4634;SDS011;2330;48.158;11.816;2022-12-22T18:01:35;5.03;;;2.13;;
4634;SDS011;2330;48.158;11.816;2022-12-22T18:04:04;5.80;;;2.10;;